createdAt,value
2023-04-18T00:01:23.536Z,102826.06
2023-04-18T00:03:50.951Z,102824.69
2023-04-18T00:06:17.756Z,102829.97
2023-04-18T00:08:44.164Z,102824.88
2023-04-18T00:11:10.579Z,102825.03
2023-04-18T00:13:38.533Z,102812.63
2023-04-18T00:16:05.952Z,102817.47
2023-04-18T00:18:32.403Z,102803.09
2023-04-18T00:20:58.906Z,102820.44
2023-04-18T00:23:27.977Z,102811.09
2023-04-18T00:25:54.378Z,102824.84
2023-04-18T00:28:20.797Z,102802.94
2023-04-18T00:30:47.250Z,102828.06
2023-04-18T00:33:13.677Z,102804.41
2023-04-18T00:35:40.185Z,102820.91
2023-04-18T00:38:06.581Z,102820.03
2023-04-18T00:40:33.125Z,102810.19
2023-04-18T00:43:00.117Z,102827.94
2023-04-18T00:45:26.521Z,102808.66
2023-04-18T00:47:52.970Z,102814.06
2023-04-18T00:50:19.952Z,102816.69
2023-04-18T00:52:47.015Z,102822.19
2023-04-18T00:55:13.550Z,102819.84
2023-04-18T00:57:40.480Z,102808.06
2023-04-18T01:00:10.532Z,102810.97
2023-04-18T01:02:38.139Z,102808.44
2023-04-18T01:05:06.096Z,102803.56
2023-04-18T01:07:35.863Z,102813.31
2023-04-18T01:10:02.440Z,102819.28
2023-04-18T01:12:28.877Z,102808.38
2023-04-18T01:14:55.497Z,102802.66
2023-04-18T01:17:23.376Z,102805.34
2023-04-18T01:19:51.007Z,102803.72
2023-04-18T01:22:19.473Z,102810.16
2023-04-18T01:24:45.912Z,102812.06
2023-04-18T01:27:15.723Z,102804.59
2023-04-18T01:29:42.149Z,102804.91
2023-04-18T01:32:08.595Z,102805.06
2023-04-18T01:34:35.044Z,102790.91
2023-04-18T01:37:01.618Z,102733.22
2023-04-18T01:39:28.551Z,102785.19
2023-04-18T01:41:54.995Z,102791.78
2023-04-18T01:44:21.400Z,102786.75
2023-04-18T01:46:47.853Z,102786.56
2023-04-18T01:49:14.499Z,102788.44
2023-04-18T01:51:42.134Z,102792.63
2023-04-18T01:54:08.566Z,102794.31
2023-04-18T01:56:35.074Z,102782.66
2023-04-18T01:59:01.505Z,102769.41
2023-04-18T02:01:28.026Z,102743.94
2023-04-18T02:03:54.631Z,102799.53
2023-04-18T02:06:21.531Z,102765.69
2023-04-18T02:08:47.970Z,102766.63
2023-04-18T02:11:14.445Z,102788.63
2023-04-18T02:13:41.259Z,102790.63
2023-04-18T02:16:12.749Z,102752.28
2023-04-18T02:18:39.373Z,102746.34
2023-04-18T02:21:05.785Z,102747.53
2023-04-18T02:23:32.178Z,102792.59
2023-04-18T02:25:58.631Z,102758.66
2023-04-18T02:28:25.047Z,102779.91
2023-04-18T02:30:51.498Z,102782.69
2023-04-18T02:33:17.920Z,102774.91
2023-04-18T02:35:44.356Z,102787.56
2023-04-18T02:38:10.770Z,102769.16
2023-04-18T02:40:37.357Z,102780.94
2023-04-18T02:43:03.837Z,102789.47
2023-04-18T02:45:30.307Z,102769.03
2023-04-18T02:47:56.909Z,102770.75
2023-04-18T02:50:24.732Z,102789.75
2023-04-18T02:52:54.519Z,102780.25
2023-04-18T02:55:21.958Z,102782.06
2023-04-18T02:57:48.364Z,102781.94
2023-04-18T03:00:14.929Z,102786.06
2023-04-18T03:02:41.535Z,102789.81
2023-04-18T03:05:08.319Z,102785.72
2023-04-18T03:07:34.801Z,102758.44
2023-04-18T03:10:01.211Z,102746.31
2023-04-18T03:12:27.633Z,102792.72
2023-04-18T03:14:54.017Z,102797.25
2023-04-18T03:17:20.724Z,102773.47
2023-04-18T03:19:47.225Z,102752.50
2023-04-18T03:22:14.094Z,102774.53
2023-04-18T03:24:40.612Z,102788.06
2023-04-18T03:27:07.120Z,102781.31
2023-04-18T03:29:33.605Z,102792.59
2023-04-18T03:32:00.046Z,102759.50
2023-04-18T03:34:27.375Z,102795.44
2023-04-18T03:36:54.019Z,102783.19
2023-04-18T03:39:20.578Z,102794.78
2023-04-18T03:41:47.039Z,102800.56
2023-04-18T03:44:13.605Z,102797.78
2023-04-18T03:46:40.627Z,102794.75
2023-04-18T03:49:07.121Z,102814.53
2023-04-18T03:51:41.850Z,102802.88
2023-04-18T03:54:08.276Z,102779.06
2023-04-18T03:56:35.542Z,102802.75
2023-04-18T03:59:01.960Z,102802.88
2023-04-18T04:01:28.436Z,102825.38
2023-04-18T04:03:54.975Z,102797.28
2023-04-18T04:06:21.707Z,102805.44
2023-04-18T04:08:48.145Z,102808.97
2023-04-18T04:11:14.584Z,102813.38
2023-04-18T04:13:41.000Z,102814.50
2023-04-18T04:16:07.945Z,102818.84
2023-04-18T04:18:34.591Z,102799.19
2023-04-18T04:21:01.341Z,102805.13
2023-04-18T04:23:27.748Z,102824.25
2023-04-18T04:25:54.846Z,102800.22
2023-04-18T04:28:22.736Z,102802.59
2023-04-18T04:30:53.186Z,102805.72
2023-04-18T04:33:20.788Z,102832.84
2023-04-18T04:35:47.787Z,102812.94
2023-04-18T04:38:15.370Z,102819.81
2023-04-18T04:40:42.801Z,102816.75
2023-04-18T04:43:12.647Z,102816.38
2023-04-18T04:45:42.189Z,102803.78
2023-04-18T04:48:09.410Z,102833.63
2023-04-18T04:50:37.961Z,102830.88
2023-04-18T04:53:06.288Z,102817.03
2023-04-18T04:55:33.136Z,102830.75
2023-04-18T04:57:59.631Z,102825.63
2023-04-18T05:00:26.192Z,102821.94
2023-04-18T05:02:55.770Z,102773.75
2023-04-18T05:05:22.490Z,102812.78
2023-04-18T05:07:48.963Z,102831.31
2023-04-18T05:10:15.475Z,102825.22
2023-04-18T05:12:41.947Z,102830.41
2023-04-18T05:15:08.638Z,102829.41
2023-04-18T05:17:35.270Z,102839.09
2023-04-18T05:20:01.851Z,102845.31
2023-04-18T05:22:28.286Z,102830.31
2023-04-18T05:24:54.697Z,102817.00
2023-04-18T05:27:21.624Z,102824.97
2023-04-18T05:29:49.351Z,102817.97
2023-04-18T05:32:16.361Z,102712.88
2023-04-18T05:34:43.024Z,102848.94
2023-04-18T05:37:09.500Z,102847.25
2023-04-18T05:39:35.993Z,102847.25
2023-04-18T05:42:02.818Z,102856.81
2023-04-18T05:44:29.849Z,102843.25
2023-04-18T05:46:56.284Z,102852.63
2023-04-18T05:49:22.833Z,102856.97
2023-04-18T05:51:49.906Z,102869.88
2023-04-18T05:54:17.041Z,102840.06
2023-04-18T05:56:43.519Z,102862.06
2023-04-18T05:59:09.917Z,102863.53
2023-04-18T06:01:36.312Z,102869.09
2023-04-18T06:04:02.947Z,102868.47
2023-04-18T06:06:29.432Z,102841.88
2023-04-18T06:08:55.903Z,102856.06
2023-04-18T06:11:22.625Z,102841.66
2023-04-18T06:13:49.161Z,102860.53
2023-04-18T06:16:16.064Z,102837.25
2023-04-18T06:18:42.528Z,102856.59
2023-04-18T06:21:08.953Z,102843.06
2023-04-18T06:23:35.490Z,102840.88
2023-04-18T06:26:01.962Z,102851.06
2023-04-18T06:28:28.352Z,102787.69
2023-04-18T06:30:54.789Z,102846.50
2023-04-18T06:33:21.428Z,102841.66
2023-04-18T06:35:47.864Z,102809.25
2023-04-18T06:38:14.543Z,102863.66
2023-04-18T06:40:40.956Z,102867.38
2023-04-18T06:43:07.679Z,102873.22
2023-04-18T06:45:34.289Z,102855.47
2023-04-18T06:48:03.410Z,102869.50
2023-04-18T06:50:30.186Z,102858.19
2023-04-18T06:52:56.702Z,102873.88
2023-04-18T06:55:23.112Z,102864.31
2023-04-18T06:57:49.580Z,102862.19
2023-04-18T07:00:16.354Z,102860.31
2023-04-18T07:02:43.015Z,102862.44
2023-04-18T07:05:09.711Z,102874.94
2023-04-18T07:07:36.169Z,102880.81
2023-04-18T07:10:02.736Z,102863.88
2023-04-18T07:12:29.186Z,102876.47
2023-04-18T07:14:55.602Z,102882.91
2023-04-18T07:17:22.117Z,102872.31
2023-04-18T07:19:48.592Z,102874.25
2023-04-18T07:22:15.041Z,102874.44
2023-04-18T07:24:41.551Z,102854.91
2023-04-18T07:27:09.491Z,102886.50
2023-04-18T07:29:36.225Z,102888.00
2023-04-18T07:32:03.359Z,102876.97
2023-04-18T07:34:30.477Z,102889.88
2023-04-18T07:36:57.476Z,102880.19
2023-04-18T07:39:24.174Z,102876.19
2023-04-18T07:41:50.760Z,102844.34
2023-04-18T07:44:18.227Z,102893.00
2023-04-18T07:46:44.781Z,102871.97
2023-04-18T07:49:11.441Z,102881.00
2023-04-18T07:51:38.053Z,102860.50
2023-04-18T07:54:04.706Z,102854.75
2023-04-18T07:56:31.132Z,102858.69
2023-04-18T07:58:57.552Z,102888.28
2023-04-18T08:01:24.806Z,102879.72
2023-04-18T08:03:53.225Z,102861.22
2023-04-18T08:06:20.364Z,102862.09
2023-04-18T08:08:47.126Z,102866.72
2023-04-18T08:11:13.532Z,102875.97
2023-04-18T08:13:39.956Z,102875.59
2023-04-18T08:16:06.695Z,102878.03
2023-04-18T08:18:33.152Z,102875.84
2023-04-18T08:21:00.049Z,102877.78
2023-04-18T08:23:26.532Z,102824.59
2023-04-18T08:25:52.946Z,102865.28
2023-04-18T08:28:19.325Z,102831.22
2023-04-18T08:30:49.093Z,102851.00
2023-04-18T08:33:16.217Z,102875.97
2023-04-18T08:35:43.098Z,102870.94
2023-04-18T08:38:09.736Z,102857.72
2023-04-18T08:40:37.533Z,102868.66
2023-04-18T08:43:09.327Z,102853.28
2023-04-18T08:45:36.833Z,102885.31
2023-04-18T08:48:03.907Z,102872.63
2023-04-18T08:50:30.858Z,102877.81
2023-04-18T08:52:59.567Z,102822.53
2023-04-18T08:55:26.093Z,102853.72
2023-04-18T08:57:55.727Z,102876.56
2023-04-18T09:00:23.573Z,102878.28
2023-04-18T09:02:55.098Z,102872.00
2023-04-18T09:05:23.549Z,102876.78
2023-04-18T09:07:53.079Z,102855.53
2023-04-18T09:10:33.497Z,102867.41
2023-04-18T09:13:03.113Z,102865.66
2023-04-18T09:15:30.485Z,102845.75
2023-04-18T09:18:00.253Z,102856.03
2023-04-18T09:20:34.746Z,102885.06
2023-04-18T09:23:07.260Z,102856.13
2023-04-18T09:25:39.869Z,102838.31
2023-04-18T09:28:28.037Z,102884.72
2023-04-18T09:31:14.407Z,102829.56
2023-04-18T09:33:44.735Z,102872.00
2023-04-18T09:36:23.554Z,102807.41
2023-04-18T09:38:53.119Z,102867.88
2023-04-18T09:41:23.158Z,102858.25
2023-04-18T09:43:49.694Z,102869.56
2023-04-18T09:46:17.728Z,102848.09
2023-04-18T09:48:44.347Z,102871.25
2023-04-18T09:51:15.732Z,102862.22
2023-04-18T09:53:51.027Z,102853.97
2023-04-18T09:56:28.212Z,102871.97
2023-04-18T09:59:08.348Z,102867.22
2023-04-18T10:01:35.100Z,102865.25
2023-04-18T10:04:04.325Z,102845.25
2023-04-18T10:06:38.490Z,102852.81
2023-04-18T10:09:05.831Z,102863.47
2023-04-18T10:11:32.436Z,102861.13
2023-04-18T10:14:07.845Z,102859.38
2023-04-18T10:16:36.318Z,102864.44
2023-04-18T10:19:26.082Z,102862.09
2023-04-18T10:21:55.809Z,102860.38
2023-04-18T10:24:48.042Z,102863.38
2023-04-18T10:27:16.182Z,102849.25
2023-04-18T10:29:53.593Z,102853.03
2023-04-18T10:32:23.086Z,102799.94
2023-04-18T10:34:50.445Z,102851.16
2023-04-18T10:37:18.829Z,102847.94
2023-04-18T10:39:55.771Z,102842.09
2023-04-18T10:42:47.032Z,102853.97
2023-04-18T10:45:21.046Z,102839.81
2023-04-18T10:47:50.551Z,102843.50
2023-04-18T10:50:17.518Z,102842.75
2023-04-18T10:52:44.836Z,102835.47
2023-04-18T10:55:16.420Z,102819.69
2023-04-18T10:57:50.361Z,102820.88
2023-04-18T11:00:21.703Z,102815.53
2023-04-18T11:02:55.972Z,102773.22
2023-04-18T11:05:28.234Z,102785.63
2023-04-18T11:07:55.328Z,102822.78
2023-04-18T11:10:26.810Z,102816.75
2023-04-18T11:12:54.992Z,102759.63
2023-04-18T11:15:23.656Z,102819.22
2023-04-18T11:18:03.992Z,102763.81
2023-04-18T11:20:46.503Z,102766.59
2023-04-18T11:23:18.261Z,102800.47
2023-04-18T11:25:45.427Z,102789.78
2023-04-18T11:28:13.562Z,102783.09
2023-04-18T11:30:41.249Z,102799.97
2023-04-18T11:33:08.874Z,102804.72
2023-04-18T11:35:45.526Z,102783.97
2023-04-18T11:38:15.470Z,102788.19
2023-04-18T11:40:48.982Z,102798.19
2023-04-18T11:43:20.977Z,102801.28
2023-04-18T11:45:58.266Z,102801.53
2023-04-18T11:48:34.424Z,102786.19
2023-04-18T11:51:01.315Z,102808.53
2023-04-18T11:53:35.732Z,102772.72
2023-04-18T11:56:03.645Z,102797.31
2023-04-18T11:58:34.168Z,102798.66
2023-04-18T12:01:22.031Z,102797.41
2023-04-18T12:04:11.056Z,102811.38
2023-04-18T12:06:51.824Z,102777.63
2023-04-18T12:09:19.129Z,102790.09
2023-04-18T12:11:58.208Z,102807.69
2023-04-18T12:14:24.655Z,102761.00
2023-04-18T12:16:51.780Z,102802.25
2023-04-18T12:19:20.465Z,102802.66
2023-04-18T12:22:00.382Z,102752.09
2023-04-18T12:24:28.987Z,102777.53
2023-04-18T12:26:57.420Z,102792.38
2023-04-18T12:29:24.883Z,102775.38
2023-04-18T12:31:53.825Z,102785.09
2023-04-18T12:34:20.429Z,102779.44
2023-04-18T12:36:47.075Z,102784.41
2023-04-18T12:39:13.518Z,102773.41
2023-04-18T12:41:39.951Z,102794.94
2023-04-18T12:44:06.756Z,102780.88
2023-04-18T12:46:33.341Z,102774.09
2023-04-18T12:49:00.126Z,102741.78
2023-04-18T12:51:27.852Z,102789.84
2023-04-18T12:53:54.421Z,102792.25
2023-04-18T12:56:21.507Z,102768.81
2023-04-18T12:58:47.890Z,102771.66
2023-04-18T13:01:14.506Z,102752.16
2023-04-18T13:03:41.255Z,102764.75
2023-04-18T13:06:08.743Z,102778.78
2023-04-18T13:08:35.329Z,102741.91
2023-04-18T13:11:01.738Z,102775.56
2023-04-18T13:13:28.139Z,102774.59
2023-04-18T13:15:54.533Z,102780.66
2023-04-18T13:18:21.637Z,102787.31
2023-04-18T13:20:49.517Z,102755.00
2023-04-18T13:23:15.944Z,102766.09
2023-04-18T13:25:42.348Z,102788.09
2023-04-18T13:28:08.744Z,102782.16
2023-04-18T13:30:35.806Z,102769.38
2023-04-18T13:33:02.456Z,102767.63
2023-04-18T13:35:28.980Z,102767.09
2023-04-18T13:37:56.009Z,102778.03
2023-04-18T13:40:22.481Z,102768.09
2023-04-18T13:42:48.885Z,102781.03
2023-04-18T13:45:15.560Z,102756.31
2023-04-18T13:47:42.070Z,102770.44
2023-04-18T13:50:09.177Z,102770.13
2023-04-18T13:52:36.277Z,102765.78
2023-04-18T13:55:03.685Z,102765.53
2023-04-18T13:57:32.125Z,102767.22
2023-04-18T13:59:58.905Z,102748.75
2023-04-18T14:02:25.559Z,102769.28
2023-04-18T14:04:54.254Z,102725.91
2023-04-18T14:07:20.721Z,102747.31
2023-04-18T14:09:48.174Z,102730.63
2023-04-18T14:12:14.756Z,102752.56
2023-04-18T14:14:42.012Z,102745.41
2023-04-18T14:17:08.443Z,102743.25
2023-04-18T14:19:35.006Z,102753.09
2023-04-18T14:22:01.418Z,102744.84
2023-04-18T14:24:27.955Z,102748.53
2023-04-18T14:26:54.808Z,102736.34
2023-04-18T14:29:21.246Z,102743.28
2023-04-18T14:31:47.810Z,102751.00
2023-04-18T14:34:14.430Z,102746.28
2023-04-18T14:36:40.854Z,102748.84
2023-04-18T14:39:07.266Z,102739.16
2023-04-18T14:41:33.794Z,102744.47
2023-04-18T14:44:00.305Z,102732.22
2023-04-18T14:46:28.239Z,102745.75
2023-04-18T14:48:54.863Z,102745.28
2023-04-18T14:51:21.395Z,102755.28
2023-04-18T14:53:47.813Z,102739.94
2023-04-18T14:56:15.334Z,102740.91
2023-04-18T14:58:42.843Z,102740.66
2023-04-18T15:01:09.232Z,102733.41
2023-04-18T15:03:35.854Z,102741.41
2023-04-18T15:06:02.365Z,102724.13
2023-04-18T15:08:30.767Z,102740.59
2023-04-18T15:10:58.885Z,102732.09
2023-04-18T15:13:25.345Z,102727.03
2023-04-18T15:15:53.019Z,102721.00
2023-04-18T15:18:19.558Z,102742.84
2023-04-18T15:20:47.282Z,102734.28
2023-04-18T15:23:14.286Z,102736.31
2023-04-18T15:25:41.709Z,102740.31
2023-04-18T15:28:08.277Z,102730.06
2023-04-18T15:30:34.997Z,102724.84
2023-04-18T15:33:02.381Z,102721.34
2023-04-18T15:35:28.957Z,102730.28
2023-04-18T15:37:56.505Z,102734.13
2023-04-18T15:40:23.236Z,102713.66
2023-04-18T15:42:50.879Z,102701.59
2023-04-18T15:45:17.300Z,102711.47
2023-04-18T15:47:44.194Z,102707.47
2023-04-18T15:50:11.121Z,102712.06
2023-04-18T15:52:37.952Z,102706.41
2023-04-18T15:55:05.262Z,102690.72
2023-04-18T15:57:32.140Z,102697.22
2023-04-18T15:59:59.556Z,102696.22
2023-04-18T16:02:26.593Z,102710.84
2023-04-18T16:04:53.214Z,102695.75
2023-04-18T16:07:19.830Z,102689.00
2023-04-18T16:09:46.283Z,102661.88
2023-04-18T16:12:12.707Z,102706.84
2023-04-18T16:14:39.336Z,102692.00
2023-04-18T16:17:05.796Z,102665.63
2023-04-18T16:19:34.434Z,102692.84
2023-04-18T16:22:02.217Z,102684.84
2023-04-18T16:24:30.230Z,102688.19
2023-04-18T16:26:56.754Z,102697.50
2023-04-18T16:29:23.777Z,102691.63
2023-04-18T16:31:51.602Z,102693.81
2023-04-18T16:34:18.342Z,102712.41
2023-04-18T16:36:44.784Z,102692.66
2023-04-18T16:39:11.443Z,102702.81
2023-04-18T16:41:37.898Z,102707.75
2023-04-18T16:44:04.673Z,102697.59
2023-04-18T16:46:32.273Z,102717.38
2023-04-18T16:48:59.244Z,102708.41
2023-04-18T16:51:26.395Z,102712.25
2023-04-18T16:53:52.839Z,102707.03
2023-04-18T16:56:19.307Z,102698.44
2023-04-18T16:58:45.913Z,102687.44
2023-04-18T17:01:12.417Z,102700.47
2023-04-18T17:03:38.991Z,102694.03
2023-04-18T17:06:05.861Z,102695.00
2023-04-18T17:08:33.654Z,102683.44
2023-04-18T17:11:02.033Z,102690.38
2023-04-18T17:13:30.637Z,102691.00
2023-04-18T17:15:58.019Z,102697.31
2023-04-18T17:18:24.560Z,102687.78
2023-04-18T17:20:52.552Z,102688.53
2023-04-18T17:23:19.146Z,102696.28
2023-04-18T17:25:46.233Z,102688.44
2023-04-18T17:28:14.025Z,102696.75
2023-04-18T17:30:43.262Z,102687.72
2023-04-18T17:33:10.429Z,102703.28
2023-04-18T17:35:37.000Z,102662.50
2023-04-18T17:38:03.439Z,102708.94
2023-04-18T17:40:29.963Z,102706.88
2023-04-18T17:42:56.644Z,102699.88
2023-04-18T17:45:23.143Z,102699.03
2023-04-18T17:47:50.796Z,102712.28
2023-04-18T17:50:17.684Z,102703.72
2023-04-18T17:52:45.164Z,102701.44
2023-04-18T17:55:11.679Z,102685.97
2023-04-18T17:57:38.106Z,102710.97
2023-04-18T18:00:10.222Z,102708.88
2023-04-18T18:02:37.174Z,102701.78
2023-04-18T18:05:03.746Z,102669.19
2023-04-18T18:07:31.772Z,102705.38
2023-04-18T18:09:58.630Z,102718.63
2023-04-18T18:12:25.080Z,102708.72
2023-04-18T18:14:51.514Z,102700.00
2023-04-18T18:17:17.944Z,102691.63
2023-04-18T18:19:44.405Z,102710.25
2023-04-18T18:22:10.989Z,102720.00
2023-04-18T18:24:37.389Z,102725.19
2023-04-18T18:27:03.967Z,102714.47
2023-04-18T18:29:30.461Z,102715.25
2023-04-18T18:31:56.887Z,102716.47
2023-04-18T18:34:23.372Z,102714.09
2023-04-18T18:36:50.538Z,102705.28
2023-04-18T18:39:17.595Z,102716.66
2023-04-18T18:41:44.051Z,102718.81
2023-04-18T18:44:11.513Z,102712.28
2023-04-18T18:46:37.998Z,102734.25
2023-04-18T18:49:04.467Z,102722.16
2023-04-18T18:51:30.949Z,102737.63
2023-04-18T18:53:57.366Z,102722.00
2023-04-18T18:56:23.810Z,102741.47
2023-04-18T18:58:50.216Z,102730.94
2023-04-18T19:01:16.894Z,102739.91
2023-04-18T19:03:43.575Z,102740.56
2023-04-18T19:06:10.139Z,102756.19
2023-04-18T19:08:36.638Z,102760.88
2023-04-18T19:11:04.366Z,102752.28
2023-04-18T19:13:30.816Z,102747.38
2023-04-18T19:15:57.348Z,102772.59
2023-04-18T19:18:24.046Z,102764.69
2023-04-18T19:20:50.761Z,102774.94
2023-04-18T19:23:17.580Z,102753.28
2023-04-18T19:25:44.909Z,102758.25
2023-04-18T19:28:12.799Z,102734.94
2023-04-18T19:30:39.263Z,102774.97
2023-04-18T19:33:05.710Z,102788.28
2023-04-18T19:35:32.147Z,102778.63
2023-04-18T19:38:01.571Z,102768.56
2023-04-18T19:40:31.153Z,102791.13
2023-04-18T19:42:57.941Z,102783.06
2023-04-18T19:45:24.648Z,102792.50
2023-04-18T19:47:51.135Z,102772.78
2023-04-18T19:50:17.829Z,102792.47
2023-04-18T19:52:44.210Z,102775.63
2023-04-18T19:55:10.722Z,102777.41
2023-04-18T19:57:41.571Z,102763.53
2023-04-18T20:00:13.054Z,102761.50
2023-04-18T20:02:40.761Z,102770.72
2023-04-18T20:05:08.431Z,102808.09
2023-04-18T20:07:35.862Z,102810.84
2023-04-18T20:10:02.440Z,102811.34
2023-04-18T20:12:28.891Z,102822.84
2023-04-18T20:14:55.904Z,102804.97
2023-04-18T20:17:22.426Z,102805.28
2023-04-18T20:19:49.683Z,102815.72
2023-04-18T20:22:17.127Z,102811.06
2023-04-18T20:24:45.046Z,102822.66
2023-04-18T20:27:11.894Z,102835.44
2023-04-18T20:29:38.300Z,102826.22
2023-04-18T20:32:05.053Z,102841.66
2023-04-18T20:34:31.543Z,102820.38
2023-04-18T20:36:58.738Z,102805.50
2023-04-18T20:39:25.236Z,102832.81
2023-04-18T20:41:52.480Z,102821.91
2023-04-18T20:44:22.246Z,102843.66
2023-04-18T20:46:48.745Z,102819.47
2023-04-18T20:49:15.482Z,102786.56
2023-04-18T20:51:42.097Z,102824.94
2023-04-18T20:54:08.519Z,102835.22
2023-04-18T20:56:36.617Z,102813.19
2023-04-18T20:59:04.723Z,102836.47
2023-04-18T21:01:31.442Z,102834.00
2023-04-18T21:03:58.317Z,102844.28
2023-04-18T21:06:24.875Z,102833.63
2023-04-18T21:08:51.325Z,102810.31
2023-04-18T21:11:17.707Z,102836.88
2023-04-18T21:13:44.086Z,102849.63
2023-04-18T21:16:10.774Z,102843.75
2023-04-18T21:18:37.246Z,102855.09
2023-04-18T21:21:04.566Z,102855.91
2023-04-18T21:23:31.014Z,102845.94
2023-04-18T21:25:57.469Z,102862.63
2023-04-18T21:28:23.934Z,102818.50
2023-04-18T21:30:50.718Z,102845.75
2023-04-18T21:33:17.207Z,102847.13
2023-04-18T21:35:43.749Z,102849.69
2023-04-18T21:38:10.196Z,102856.84
2023-04-18T21:40:37.390Z,102839.78
2023-04-18T21:43:04.010Z,102855.22
2023-04-18T21:45:30.458Z,102853.16
2023-04-18T21:47:56.909Z,102848.91
2023-04-18T21:50:23.466Z,102848.16
2023-04-18T21:52:49.865Z,102838.63
2023-04-18T21:55:16.274Z,102836.28
2023-04-18T21:57:42.703Z,102838.22
2023-04-18T22:00:11.171Z,102853.59
2023-04-18T22:02:37.800Z,102858.59
2023-04-18T22:05:04.619Z,102853.59
2023-04-18T22:07:31.104Z,102836.16
2023-04-18T22:09:59.632Z,102841.41
2023-04-18T22:12:26.458Z,102845.19
2023-04-18T22:14:53.042Z,102841.25
2023-04-18T22:17:20.904Z,102822.00
2023-04-18T22:19:49.037Z,102844.81
2023-04-18T22:22:15.553Z,102842.53
2023-04-18T22:24:41.949Z,102835.09
2023-04-18T22:27:08.396Z,102849.59
2023-04-18T22:29:34.797Z,102844.31
2023-04-18T22:32:01.183Z,102839.59
2023-04-18T22:34:27.637Z,102830.44
2023-04-18T22:36:54.070Z,102836.47
2023-04-18T22:39:20.637Z,102846.81
2023-04-18T22:41:47.080Z,102845.16
2023-04-18T22:44:13.697Z,102838.44
2023-04-18T22:46:40.773Z,102844.63
2023-04-18T22:49:07.388Z,102829.34
2023-04-18T22:51:34.154Z,102853.56
2023-04-18T22:54:00.592Z,102839.81
2023-04-18T22:56:26.990Z,102852.16
2023-04-18T22:58:53.393Z,102796.19
2023-04-18T23:01:19.983Z,102844.69
2023-04-18T23:03:46.596Z,102862.94
2023-04-18T23:06:13.125Z,102859.72
2023-04-18T23:08:39.547Z,102831.03
2023-04-18T23:11:06.029Z,102853.94
2023-04-18T23:13:32.428Z,102852.25
2023-04-18T23:15:58.910Z,102860.22
2023-04-18T23:18:25.529Z,102831.88
2023-04-18T23:20:51.957Z,102860.16
2023-04-18T23:23:18.369Z,102830.19
2023-04-18T23:25:44.750Z,102869.59
2023-04-18T23:28:13.493Z,102836.97
2023-04-18T23:30:39.921Z,102859.22
2023-04-18T23:33:06.590Z,102856.59
2023-04-18T23:35:33.044Z,102856.00
2023-04-18T23:37:59.442Z,102864.81
2023-04-18T23:40:25.922Z,102875.69
2023-04-18T23:42:52.481Z,102855.41
2023-04-18T23:45:19.035Z,102861.44
2023-04-18T23:47:45.475Z,102870.69
2023-04-18T23:50:12.189Z,102848.63
2023-04-18T23:52:38.695Z,102854.97
2023-04-18T23:55:05.519Z,102860.06
2023-04-18T23:57:31.923Z,102868.91
2023-04-18T23:59:58.331Z,102840.31
